PGUA/UAM METAR and TAF weather

Enter ICAO airport designator
Station Type Date Time Source
PGUA METAR 2020/06/03 16:10 UTC NOAA

PGUA 031610Z 09009KT 10SM SCT013 SCT019 BKN029 27/24 A2990 RMK AO2A SCT019 V BKN SLP115 PWINO $


Station Type Date Time Source
PGUA Decoded METAR 2020/06/03 16:10 UTC NOAA

Andersen, Mariana Is, Andersen Air Force Base, GU, United States (PGUA) 13-35N 144-56E 187M
Jun 03, 2020 - 12:10 PM EDT / 2020.06.03 1610 UTC
Wind: from the E (090 degrees) at 10 MPH (9 KT):0
Visibility: 10 mile(s):0
Sky conditions: mostly cloudy
Temperature: 80 F (27 C)
Dew Point: 75 F (24 C)
Relative Humidity: 83%
Pressure (altimeter): 29.9 in. Hg (1012 hPa)
ob: PGUA 031610Z 09009KT 10SM SCT013 SCT019 BKN029 27/24 A2990 RMK AO2A SCT019 V BKN SLP115 PWINO
cycle: 16

Station Type Date Time Source
PGUA TAF 2020/06/03 10:03 UTC NOAA

TAF TAF PGUA 031000Z 0310/0416 10012KT 9999 SCT015 QNH2986INS
TEMPO 0311/0314 BKN015 TX30/0402Z TN26/0319Z

Example: see airport list